createdAt,value
2017-09-19T00:01:49.430Z,13.70
2017-09-19T00:04:17.402Z,13.70
2017-09-19T00:06:45.143Z,13.70
2017-09-19T00:09:12.621Z,13.70
2017-09-19T00:11:40.192Z,13.60
2017-09-19T00:14:07.702Z,13.70
2017-09-19T00:16:35.322Z,13.70
2017-09-19T00:19:04.239Z,13.80
2017-09-19T00:21:32.784Z,13.80
2017-09-19T00:24:01.026Z,13.80
2017-09-19T00:26:29.838Z,13.80
2017-09-19T00:28:57.890Z,13.80
2017-09-19T00:31:25.406Z,13.80
2017-09-19T00:33:53.896Z,13.70
2017-09-19T00:36:21.504Z,13.70
2017-09-19T00:38:49.825Z,13.70
2017-09-19T00:41:17.341Z,13.70
2017-09-19T00:43:45.674Z,13.60
2017-09-19T00:46:15.141Z,13.60
2017-09-19T00:48:43.824Z,13.60
2017-09-19T00:51:12.241Z,13.60
2017-09-19T00:53:39.779Z,13.60
2017-09-19T00:56:07.829Z,13.60
2017-09-19T00:58:35.703Z,13.60
2017-09-19T01:01:03.757Z,13.70
2017-09-19T01:03:31.350Z,13.70
2017-09-19T01:05:59.567Z,13.70
2017-09-19T01:08:27.265Z,13.80
2017-09-19T01:10:54.765Z,13.70
2017-09-19T01:13:23.794Z,13.80
2017-09-19T01:15:51.664Z,13.80
2017-09-19T01:18:19.183Z,13.80
2017-09-19T01:20:46.710Z,13.80
2017-09-19T01:23:15.292Z,13.80
2017-09-19T01:25:44.417Z,13.80
2017-09-19T01:28:12.108Z,13.90
2017-09-19T01:30:41.331Z,13.80
2017-09-19T01:33:09.734Z,13.90
2017-09-19T01:35:37.352Z,13.80
2017-09-19T01:38:05.491Z,13.80
2017-09-19T01:40:34.083Z,13.80
2017-09-19T01:43:01.591Z,13.90
2017-09-19T01:45:29.646Z,13.90
2017-09-19T01:47:58.066Z,13.90
2017-09-19T01:50:26.488Z,13.90
2017-09-19T01:52:54.094Z,13.90
2017-09-19T01:55:22.770Z,13.90
2017-09-19T01:57:51.436Z,13.90
2017-09-19T02:00:18.960Z,13.90
2017-09-19T02:02:48.278Z,13.90
2017-09-19T02:05:16.066Z,13.90
2017-09-19T02:07:43.669Z,13.90
2017-09-19T02:10:11.281Z,13.90
2017-09-19T02:12:39.595Z,13.80
2017-09-19T02:15:07.724Z,13.80
2017-09-19T02:17:35.967Z,13.80
2017-09-19T02:20:03.572Z,13.80
2017-09-19T02:22:32.403Z,13.80
2017-09-19T02:25:01.203Z,13.70
2017-09-19T02:27:28.905Z,13.70
2017-09-19T02:29:57.215Z,13.60
2017-09-19T02:32:24.992Z,13.60
2017-09-19T02:34:52.501Z,13.60
2017-09-19T02:37:20.027Z,13.60
2017-09-19T02:39:47.531Z,13.60
2017-09-19T02:42:15.141Z,13.60
2017-09-19T02:44:42.645Z,13.60
2017-09-19T02:47:10.790Z,13.70
2017-09-19T02:49:39.287Z,13.70
2017-09-19T02:52:07.363Z,13.70
2017-09-19T02:54:34.993Z,13.80
2017-09-19T02:57:03.010Z,13.80
2017-09-19T02:59:31.421Z,13.80
2017-09-19T03:01:59.565Z,13.90
2017-09-19T03:04:27.069Z,13.90
2017-09-19T03:06:56.218Z,13.90
2017-09-19T03:09:23.709Z,13.90
2017-09-19T03:11:51.394Z,14.00
2017-09-19T03:14:19.634Z,14.00
2017-09-19T03:16:47.155Z,14.00
2017-09-19T03:19:16.446Z,14.00
2017-09-19T03:21:44.418Z,13.90
2017-09-19T03:24:11.900Z,14.00
2017-09-19T03:26:40.017Z,14.00
2017-09-19T03:29:07.514Z,14.00
2017-09-19T03:31:35.127Z,14.00
2017-09-19T03:34:02.856Z,14.00
2017-09-19T03:36:30.896Z,14.00
2017-09-19T03:38:58.780Z,14.00
2017-09-19T03:41:27.217Z,14.00
2017-09-19T03:43:54.703Z,13.90
2017-09-19T03:46:24.987Z,13.90
2017-09-19T03:48:52.505Z,13.90
2017-09-19T03:51:20.572Z,14.00
2017-09-19T03:53:48.089Z,14.00
2017-09-19T03:56:16.221Z,14.00
2017-09-19T03:58:44.460Z,14.00
2017-09-19T04:01:12.419Z,14.10
2017-09-19T04:03:41.089Z,14.10
2017-09-19T04:06:08.976Z,14.10
2017-09-19T04:08:37.589Z,14.10
2017-09-19T04:11:05.094Z,14.10
2017-09-19T04:13:33.064Z,14.10
2017-09-19T04:16:02.787Z,14.10
2017-09-19T04:18:30.329Z,14.10
2017-09-19T04:20:57.826Z,14.10
2017-09-19T04:23:26.400Z,14.10
2017-09-19T04:25:54.449Z,14.00
2017-09-19T04:28:22.004Z,14.10
2017-09-19T04:30:50.101Z,14.10
2017-09-19T04:33:17.704Z,14.10
2017-09-19T04:35:46.225Z,14.10
2017-09-19T04:38:13.754Z,14.10
2017-09-19T04:40:41.253Z,14.10
2017-09-19T04:43:09.609Z,14.10
2017-09-19T04:45:37.984Z,14.10
2017-09-19T04:48:05.937Z,14.10
2017-09-19T04:50:34.226Z,14.10
2017-09-19T04:53:01.738Z,14.10
2017-09-19T04:55:30.328Z,14.10
2017-09-19T04:57:59.277Z,14.10
2017-09-19T05:00:27.239Z,14.10
2017-09-19T05:02:55.376Z,14.10
2017-09-19T05:05:23.373Z,14.10
2017-09-19T05:07:50.849Z,14.10
2017-09-19T05:10:18.327Z,14.10
2017-09-19T05:12:45.870Z,14.10
2017-09-19T05:15:14.574Z,14.00
2017-09-19T05:17:42.035Z,14.00
2017-09-19T05:20:10.695Z,14.00
2017-09-19T05:22:38.964Z,14.00
2017-09-19T05:25:08.223Z,14.00
2017-09-19T05:27:36.410Z,14.00
2017-09-19T05:30:04.616Z,14.00
2017-09-19T05:32:32.111Z,14.00
2017-09-19T05:34:59.567Z,14.00
2017-09-19T05:37:28.185Z,14.00
2017-09-19T05:39:55.646Z,14.00
2017-09-19T05:42:23.853Z,14.00
2017-09-19T05:44:51.313Z,14.00
2017-09-19T05:47:19.366Z,14.00
2017-09-19T05:49:48.570Z,14.00
2017-09-19T05:52:16.035Z,14.00
2017-09-19T05:54:45.603Z,14.00
2017-09-19T05:57:14.596Z,14.10
2017-09-19T05:59:42.421Z,14.10
2017-09-19T06:02:10.278Z,14.10
2017-09-19T06:04:37.741Z,14.10
2017-09-19T06:07:05.968Z,14.10
2017-09-19T06:09:34.950Z,14.10
2017-09-19T06:12:02.433Z,14.10
2017-09-19T06:14:30.453Z,14.10
2017-09-19T06:16:57.950Z,14.10
2017-09-19T06:19:25.403Z,14.10
2017-09-19T06:21:53.485Z,14.10
2017-09-19T06:24:20.958Z,14.10
2017-09-19T06:26:50.477Z,14.20
2017-09-19T06:29:17.949Z,14.20
2017-09-19T06:31:45.401Z,14.20
2017-09-19T06:34:13.161Z,14.20
2017-09-19T06:36:41.479Z,14.20
2017-09-19T06:39:08.956Z,14.20
2017-09-19T06:41:37.037Z,14.20
2017-09-19T06:44:04.577Z,14.20
2017-09-19T06:46:33.534Z,14.20
2017-09-19T06:49:02.190Z,14.20
2017-09-19T06:51:30.154Z,14.20
2017-09-19T06:53:58.605Z,14.30
2017-09-19T06:56:26.528Z,14.30
2017-09-19T06:58:54.438Z,14.30
2017-09-19T07:01:22.498Z,14.30
2017-09-19T07:03:50.327Z,14.30
2017-09-19T07:06:18.209Z,14.40
2017-09-19T07:08:45.681Z,14.40
2017-09-19T07:11:13.213Z,14.40
2017-09-19T07:13:40.666Z,14.40
2017-09-19T07:16:08.460Z,14.40
2017-09-19T07:18:36.685Z,14.50
2017-09-19T07:21:04.661Z,14.40
2017-09-19T07:23:32.994Z,14.50
2017-09-19T07:26:00.835Z,14.50
2017-09-19T07:28:28.277Z,14.50
2017-09-19T07:30:55.753Z,14.50
2017-09-19T07:33:23.876Z,14.60
2017-09-19T07:35:51.765Z,14.60
2017-09-19T07:38:19.263Z,14.60
2017-09-19T07:40:47.031Z,14.60
2017-09-19T07:43:14.921Z,14.60
2017-09-19T07:45:44.355Z,14.70
2017-09-19T07:48:12.586Z,14.60
2017-09-19T07:50:40.057Z,14.70
2017-09-19T07:53:08.112Z,14.70
2017-09-19T07:55:36.196Z,14.70
2017-09-19T07:58:04.003Z,14.70
2017-09-19T08:00:32.583Z,14.70
2017-09-19T08:03:00.307Z,14.80
2017-09-19T08:05:27.875Z,14.80
2017-09-19T08:07:55.348Z,14.80
2017-09-19T08:10:22.817Z,14.80
2017-09-19T08:12:50.291Z,14.80
2017-09-19T08:15:18.633Z,14.80
2017-09-19T08:17:46.771Z,14.80
2017-09-19T08:20:15.030Z,14.80
2017-09-19T08:22:43.247Z,14.80
2017-09-19T08:25:11.393Z,14.80
2017-09-19T08:27:38.838Z,14.90
2017-09-19T08:30:06.374Z,14.90
2017-09-19T08:32:33.836Z,15.00
2017-09-19T08:35:01.356Z,15.00
2017-09-19T08:37:28.798Z,15.10
2017-09-19T08:39:56.307Z,15.00
2017-09-19T08:42:24.770Z,15.00
2017-09-19T08:44:54.061Z,15.00
2017-09-19T08:47:21.823Z,15.00
2017-09-19T08:49:50.271Z,15.00
2017-09-19T08:52:18.507Z,15.00
2017-09-19T08:54:47.273Z,15.10
2017-09-19T08:57:16.560Z,15.10
2017-09-19T08:59:44.057Z,15.10
2017-09-19T09:02:12.118Z,15.20
2017-09-19T09:04:39.562Z,15.20
2017-09-19T09:07:07.029Z,15.10
2017-09-19T09:09:34.474Z,15.10
2017-09-19T09:12:02.006Z,15.10
2017-09-19T09:14:30.581Z,15.10
2017-09-19T09:16:58.788Z,15.20
2017-09-19T09:19:26.258Z,15.20
2017-09-19T09:21:54.300Z,15.20
2017-09-19T09:24:21.767Z,15.30
2017-09-19T09:26:50.030Z,15.40
2017-09-19T09:29:17.662Z,15.50
2017-09-19T09:31:45.190Z,15.60
2017-09-19T09:34:12.865Z,15.60
2017-09-19T09:36:40.332Z,15.70
2017-09-19T09:39:08.910Z,15.70
2017-09-19T09:41:37.109Z,15.70
2017-09-19T09:44:04.581Z,15.60
2017-09-19T09:46:32.700Z,15.60
2017-09-19T09:49:00.801Z,15.60
2017-09-19T09:51:29.037Z,15.50
2017-09-19T09:53:56.573Z,15.50
2017-09-19T09:56:24.538Z,15.50
2017-09-19T09:58:52.394Z,15.50
2017-09-19T10:01:20.724Z,15.50
2017-09-19T10:03:48.820Z,15.50
2017-09-19T10:06:17.130Z,15.60
2017-09-19T10:08:44.579Z,15.60
2017-09-19T10:11:12.123Z,15.70
2017-09-19T10:13:39.669Z,15.80
2017-09-19T10:16:07.723Z,15.90
2017-09-19T10:18:35.247Z,16.00
2017-09-19T10:21:02.713Z,16.00
2017-09-19T10:23:30.214Z,16.10
2017-09-19T10:25:58.979Z,16.10
2017-09-19T10:28:27.852Z,16.10
2017-09-19T10:30:56.131Z,16.10
2017-09-19T10:33:23.965Z,16.10
2017-09-19T10:35:52.396Z,16.20
2017-09-19T10:38:19.846Z,16.10
2017-09-19T10:40:48.078Z,16.20
2017-09-19T10:43:15.539Z,16.20
2017-09-19T10:45:43.194Z,16.20
2017-09-19T10:48:13.201Z,16.20
2017-09-19T10:50:41.437Z,16.30
2017-09-19T10:53:09.027Z,16.30
2017-09-19T10:55:37.115Z,16.40
2017-09-19T10:58:05.029Z,16.50
2017-09-19T11:00:32.504Z,16.50
2017-09-19T11:03:00.305Z,16.60
2017-09-19T11:05:28.523Z,16.70
2017-09-19T11:07:56.057Z,16.70
2017-09-19T11:10:23.998Z,16.80
2017-09-19T11:12:51.494Z,16.80
2017-09-19T11:15:20.063Z,16.80
2017-09-19T11:17:47.512Z,16.90
2017-09-19T11:20:16.178Z,17.20
2017-09-19T11:22:44.422Z,17.20
2017-09-19T11:25:12.536Z,17.40
2017-09-19T11:27:39.987Z,17.80
2017-09-19T11:30:07.478Z,18.10
2017-09-19T11:32:35.716Z,18.80
2017-09-19T11:35:04.700Z,19.00
2017-09-19T11:37:32.307Z,19.00
2017-09-19T11:39:59.770Z,19.10
2017-09-19T11:42:27.226Z,19.10
2017-09-19T11:44:54.682Z,18.90
2017-09-19T11:47:23.467Z,18.70
2017-09-19T11:49:52.175Z,18.60
2017-09-19T11:52:19.665Z,18.70
2017-09-19T11:54:48.690Z,18.60
2017-09-19T11:57:16.530Z,18.60
2017-09-19T11:59:43.987Z,18.70
2017-09-19T12:02:11.882Z,18.60
2017-09-19T12:04:39.645Z,18.50
2017-09-19T12:07:08.186Z,18.50
2017-09-19T12:09:35.643Z,18.50
2017-09-19T12:12:03.881Z,18.40
2017-09-19T12:14:32.519Z,18.20
2017-09-19T12:17:00.274Z,18.20
2017-09-19T12:19:27.730Z,18.10
2017-09-19T12:21:55.185Z,18.10
2017-09-19T12:24:23.756Z,18.10
2017-09-19T12:26:52.336Z,18.00
2017-09-19T12:29:20.038Z,18.00
2017-09-19T12:31:47.562Z,17.90
2017-09-19T12:34:15.491Z,17.90
2017-09-19T12:36:42.980Z,17.90
2017-09-19T12:39:10.617Z,17.80
2017-09-19T12:41:38.091Z,17.70
2017-09-19T12:44:05.827Z,17.70
2017-09-19T12:46:33.864Z,17.60
2017-09-19T12:49:01.797Z,17.60
2017-09-19T12:51:29.559Z,17.80
2017-09-19T12:53:57.098Z,18.10
2017-09-19T12:56:24.933Z,18.40
2017-09-19T12:58:52.909Z,18.60
2017-09-19T13:01:22.041Z,18.80
2017-09-19T13:03:50.250Z,19.00
2017-09-19T13:06:18.074Z,19.00
2017-09-19T13:08:45.533Z,19.30
2017-09-19T13:11:13.221Z,19.50
2017-09-19T13:13:41.450Z,20.10
2017-09-19T13:16:10.719Z,20.10
2017-09-19T13:18:38.174Z,20.30
2017-09-19T13:21:05.618Z,20.50
2017-09-19T13:23:33.151Z,20.70
2017-09-19T13:26:01.122Z,21.00
2017-09-19T13:28:30.112Z,21.30
2017-09-19T13:34:02.070Z,21.40
2017-09-19T13:36:30.269Z,21.40
2017-09-19T13:38:57.859Z,21.40
2017-09-19T13:41:26.004Z,21.60
2017-09-19T13:43:55.207Z,21.60
2017-09-19T13:46:23.216Z,21.60
2017-09-19T13:48:50.667Z,21.50
2017-09-19T13:51:18.649Z,21.60
2017-09-19T13:53:46.113Z,21.70
2017-09-19T13:56:14.662Z,22.00
2017-09-19T13:58:43.286Z,22.00
2017-09-19T14:01:12.365Z,21.90
2017-09-19T14:03:39.806Z,21.80
2017-09-19T14:06:07.255Z,21.70
2017-09-19T14:08:34.748Z,21.50
2017-09-19T14:11:03.261Z,21.00
2017-09-19T14:13:31.236Z,21.00
2017-09-19T14:15:59.161Z,20.80
2017-09-19T14:18:26.801Z,20.50
2017-09-19T14:20:54.276Z,20.40
2017-09-19T14:23:21.748Z,20.40
2017-09-19T14:25:49.694Z,20.50
2017-09-19T14:28:17.952Z,20.60
2017-09-19T14:30:46.361Z,20.60
2017-09-19T14:33:14.245Z,20.60
2017-09-19T14:35:41.699Z,20.60
2017-09-19T14:38:10.571Z,20.30
2017-09-19T14:40:38.821Z,20.30
2017-09-19T14:43:06.443Z,20.20
2017-09-19T14:45:33.900Z,20.10
2017-09-19T14:48:02.780Z,20.10
2017-09-19T14:50:31.738Z,20.00
2017-09-19T14:52:59.264Z,20.00
2017-09-19T14:55:26.958Z,20.00
2017-09-19T14:57:54.922Z,20.10
2017-09-19T15:00:24.183Z,20.10
2017-09-19T15:02:52.338Z,20.10
2017-09-19T15:05:20.120Z,20.20
2017-09-19T15:07:47.694Z,20.30
2017-09-19T15:10:16.178Z,20.40
2017-09-19T15:12:43.691Z,20.50
2017-09-19T15:15:11.804Z,20.60
2017-09-19T15:17:40.059Z,20.80
2017-09-19T15:20:07.645Z,20.80
2017-09-19T15:22:35.127Z,20.70
2017-09-19T15:25:03.306Z,20.80
2017-09-19T15:27:30.817Z,20.90
2017-09-19T15:29:58.290Z,21.00
2017-09-19T15:32:26.351Z,21.10
2017-09-19T15:34:53.806Z,21.20
2017-09-19T15:37:21.330Z,21.20
2017-09-19T15:39:48.832Z,21.30
2017-09-19T15:42:16.313Z,21.30
2017-09-19T15:44:43.778Z,21.30
2017-09-19T15:47:11.820Z,21.30
2017-09-19T15:49:40.123Z,21.10
2017-09-19T15:52:07.617Z,21.10
2017-09-19T15:54:35.906Z,20.80
2017-09-19T15:57:03.826Z,20.80
2017-09-19T15:59:32.046Z,20.70
2017-09-19T16:02:00.261Z,20.70
2017-09-19T16:04:28.915Z,20.60
2017-09-19T16:06:57.154Z,20.60
2017-09-19T16:09:24.606Z,20.60
2017-09-19T16:11:52.099Z,20.60
2017-09-19T16:14:20.677Z,20.60
2017-09-19T16:16:48.127Z,20.50
2017-09-19T16:19:15.925Z,20.50
2017-09-19T16:21:44.238Z,20.40
2017-09-19T16:24:12.058Z,20.30
2017-09-19T16:26:39.990Z,20.30
2017-09-19T16:29:08.314Z,20.30
2017-09-19T16:31:35.761Z,20.30
2017-09-19T16:34:04.278Z,20.10
2017-09-19T16:36:32.253Z,20.10
2017-09-19T16:38:59.722Z,20.00
2017-09-19T16:41:27.173Z,19.90
2017-09-19T16:43:54.967Z,19.80
2017-09-19T16:46:23.391Z,19.70
2017-09-19T16:48:50.840Z,19.60
2017-09-19T16:51:19.079Z,19.50
2017-09-19T16:53:48.057Z,19.40
2017-09-19T16:56:16.191Z,19.40
2017-09-19T16:58:44.212Z,19.30
2017-09-19T17:01:11.997Z,19.20
2017-09-19T17:03:39.483Z,19.10
2017-09-19T17:06:07.706Z,18.90
2017-09-19T17:08:35.233Z,18.90
2017-09-19T17:11:02.693Z,18.80
2017-09-19T17:13:30.162Z,18.70
2017-09-19T17:15:58.791Z,18.50
2017-09-19T17:18:26.524Z,18.50
2017-09-19T17:20:54.476Z,18.40
2017-09-19T17:23:22.031Z,18.20
2017-09-19T17:25:50.640Z,18.20
2017-09-19T17:28:18.093Z,18.00
2017-09-19T17:30:46.553Z,17.90
2017-09-19T17:33:15.249Z,17.80
2017-09-19T17:35:42.719Z,17.80
2017-09-19T17:38:10.274Z,17.70
2017-09-19T17:40:38.564Z,17.60
2017-09-19T17:43:06.814Z,17.50
2017-09-19T17:45:34.301Z,17.50
2017-09-19T17:48:02.507Z,17.40
2017-09-19T17:50:30.013Z,17.40
2017-09-19T17:52:57.516Z,17.40
2017-09-19T17:55:26.978Z,17.30
2017-09-19T17:57:57.093Z,17.20
2017-09-19T18:00:25.330Z,17.10
2017-09-19T18:02:53.385Z,17.10
2017-09-19T18:05:20.811Z,17.00
2017-09-19T18:07:49.315Z,17.00
2017-09-19T18:10:17.573Z,16.80
2017-09-19T18:12:45.883Z,16.80
2017-09-19T18:15:13.995Z,16.80
2017-09-19T18:17:42.230Z,16.60
2017-09-19T18:20:11.003Z,16.60
2017-09-19T18:22:38.474Z,16.60
2017-09-19T18:25:07.559Z,16.50
2017-09-19T18:27:36.086Z,16.50
2017-09-19T18:30:03.625Z,16.50
2017-09-19T18:32:32.142Z,16.40
2017-09-19T18:35:00.097Z,16.40
2017-09-19T18:37:27.929Z,16.40
2017-09-19T18:39:58.146Z,16.40
2017-09-19T18:42:26.596Z,16.40
2017-09-19T18:44:55.532Z,16.40
2017-09-19T18:47:23.611Z,16.40
2017-09-19T18:49:51.971Z,16.30
2017-09-19T18:52:20.288Z,16.30
2017-09-19T18:54:49.264Z,16.30
2017-09-19T18:57:17.317Z,16.20
2017-09-19T18:59:45.382Z,16.30
2017-09-19T19:02:13.653Z,16.20
2017-09-19T19:04:41.199Z,16.20
2017-09-19T19:07:08.934Z,16.20
2017-09-19T19:09:36.430Z,16.20
2017-09-19T19:12:04.993Z,16.20
2017-09-19T19:14:34.524Z,16.20
2017-09-19T19:17:02.056Z,16.20
2017-09-19T19:19:29.525Z,16.20
2017-09-19T19:21:59.330Z,16.20
2017-09-19T19:24:26.937Z,16.20
2017-09-19T19:26:55.007Z,16.10
2017-09-19T19:29:22.474Z,16.00
2017-09-19T19:31:50.012Z,16.00
2017-09-19T19:34:17.844Z,16.00
2017-09-19T19:36:45.358Z,16.00
2017-09-19T19:39:12.935Z,16.00
2017-09-19T19:41:40.404Z,16.00
2017-09-19T19:44:07.930Z,16.00
2017-09-19T19:46:36.041Z,16.00
2017-09-19T19:49:03.577Z,16.00
2017-09-19T19:51:31.119Z,16.00
2017-09-19T19:53:59.418Z,16.00
2017-09-19T19:56:27.629Z,15.90
2017-09-19T19:58:56.788Z,15.90
2017-09-19T20:01:24.801Z,15.90
2017-09-19T20:03:52.338Z,15.90
2017-09-19T20:06:19.826Z,15.90
2017-09-19T20:08:47.602Z,15.90
2017-09-19T20:11:15.903Z,15.90
2017-09-19T20:13:43.430Z,15.90
2017-09-19T20:16:11.838Z,15.90
2017-09-19T20:18:39.385Z,16.00
2017-09-19T20:21:07.558Z,16.00
2017-09-19T20:23:35.800Z,16.00
2017-09-19T20:26:03.911Z,16.00
2017-09-19T20:28:31.507Z,16.00
2017-09-19T20:31:00.678Z,16.00
2017-09-19T20:33:29.228Z,16.00
2017-09-19T20:35:56.974Z,16.00
2017-09-19T20:38:24.463Z,16.00
2017-09-19T20:40:51.912Z,15.90
2017-09-19T20:43:19.941Z,15.80
2017-09-19T20:45:47.459Z,15.80
2017-09-19T20:48:16.322Z,15.70
2017-09-19T20:50:43.787Z,15.70
2017-09-19T20:53:11.253Z,15.80
2017-09-19T20:55:41.759Z,15.70
2017-09-19T20:58:10.250Z,15.60
2017-09-19T21:00:37.873Z,15.60
2017-09-19T21:03:06.114Z,15.60
2017-09-19T21:05:39.398Z,15.60
2017-09-19T21:08:12.470Z,15.60
2017-09-19T21:10:45.975Z,15.60
2017-09-19T21:13:20.677Z,15.50
2017-09-19T21:15:54.859Z,15.40
2017-09-19T21:18:28.101Z,15.30
2017-09-19T21:20:56.912Z,15.30
2017-09-19T21:23:24.382Z,15.30
2017-09-19T21:25:52.353Z,15.30
2017-09-19T21:28:19.843Z,15.30
2017-09-19T21:30:47.393Z,15.20
2017-09-19T21:33:15.654Z,15.20
2017-09-19T21:35:43.414Z,15.20
2017-09-19T21:38:11.637Z,15.20
2017-09-19T21:40:39.187Z,15.20
2017-09-19T21:43:06.853Z,15.20
2017-09-19T21:45:35.165Z,15.10
2017-09-19T21:48:02.992Z,15.10
2017-09-19T21:50:30.505Z,15.10
2017-09-19T21:52:58.738Z,15.10
2017-09-19T21:55:26.625Z,15.10
2017-09-19T21:57:55.929Z,15.10
2017-09-19T22:00:23.834Z,15.10
2017-09-19T22:02:52.069Z,15.10
2017-09-19T22:05:20.017Z,15.10
2017-09-19T22:07:47.531Z,15.00
2017-09-19T22:10:15.717Z,15.00
2017-09-19T22:12:43.194Z,15.00
2017-09-19T22:15:11.449Z,14.90
2017-09-19T22:17:39.410Z,14.90
2017-09-19T22:20:07.790Z,14.90
2017-09-19T22:22:35.251Z,14.90
2017-09-19T22:25:04.354Z,14.90
2017-09-19T22:27:32.581Z,14.80
2017-09-19T22:30:00.415Z,14.80
2017-09-19T22:32:28.634Z,14.80
2017-09-19T22:34:56.509Z,14.80
2017-09-19T22:37:24.437Z,14.80
2017-09-19T22:39:52.103Z,14.80
2017-09-19T22:42:19.595Z,14.80
2017-09-19T22:44:47.075Z,14.80
2017-09-19T22:47:15.169Z,14.80
2017-09-19T22:49:43.615Z,14.80
2017-09-19T22:52:11.452Z,14.80
2017-09-19T23:03:38.750Z,14.60
2017-09-19T23:06:11.877Z,14.60
2017-09-19T23:08:40.610Z,14.50
2017-09-19T23:11:08.813Z,14.50
2017-09-19T23:13:38.499Z,14.40
2017-09-19T23:16:08.096Z,14.40
2017-09-19T23:18:37.748Z,14.40
2017-09-19T23:21:06.789Z,14.30
2017-09-19T23:23:34.875Z,14.30
2017-09-19T23:26:03.492Z,14.30
2017-09-19T23:28:31.755Z,14.30
2017-09-19T23:31:00.529Z,14.30
2017-09-19T23:33:28.591Z,14.30
2017-09-19T23:35:57.662Z,14.30
2017-09-19T23:38:28.720Z,14.40
2017-09-19T23:40:57.658Z,14.40
2017-09-19T23:43:27.472Z,14.50
2017-09-19T23:45:55.932Z,14.40
2017-09-19T23:48:25.970Z,14.40
2017-09-19T23:50:54.627Z,14.40
2017-09-19T23:53:23.787Z,14.40
2017-09-19T23:55:52.387Z,14.40
2017-09-19T23:58:20.608Z,14.40
